Time;durP1;ratioP1;P1;durP2;ratioP2;P2;SDS_P1;SDS_P2;PMS_P1;PMS_P2;Temp;Humidity;BMP_temperature;BMP_pressure;BME280_temperature;BME280_humidity;BME280_pressure;Samples;Min_cycle;Max_cycle;Signal;HPM_P1;HPM_P2
2022/10/12 00:00:17;;;;;;;4.63;2.70;;;;;;;20.79;65.11;100948.75;5033585;28;20180;-70
2022/10/12 00:02:43;;;;;;;5.10;2.77;;;;;;;20.78;65.02;100952.00;5051183;28;20596;-70
2022/10/12 00:05:08;;;;;;;3.57;2.43;;;;;;;20.79;65.22;100945.88;5032881;28;20554;-71
2022/10/12 00:07:34;;;;;;;3.90;2.67;;;;;;;20.81;64.95;100956.94;5033465;28;20795;-71
2022/10/12 00:09:59;;;;;;;3.40;2.30;;;;;;;20.78;65.00;100955.66;5033266;28;20619;-70
2022/10/12 00:12:25;;;;;;;3.40;2.40;;;;;;;20.77;65.35;100956.88;5033068;28;20168;-71
2022/10/12 00:14:50;;;;;;;5.47;2.60;;;;;;;20.80;65.31;100956.13;5033061;28;20157;-71
2022/10/12 00:17:16;;;;;;;4.50;2.70;;;;;;;20.78;65.06;100961.41;5050646;28;20306;-70
2022/10/12 00:19:41;;;;;;;4.33;2.60;;;;;;;20.78;65.28;100958.53;5049927;28;20802;-71
2022/10/12 00:22:06;;;;;;;3.77;2.30;;;;;;;20.77;65.44;100961.81;5050978;28;20701;-71
2022/10/12 00:24:32;;;;;;;4.80;2.40;;;;;;;20.78;65.13;100958.53;5032935;28;20603;-71
2022/10/12 00:26:57;;;;;;;3.30;2.50;;;;;;;20.77;65.25;100956.88;5050797;28;20586;-69
2022/10/12 00:29:23;;;;;;;3.70;2.30;;;;;;;20.76;65.27;100955.22;5049865;28;20206;-71
2022/10/12 00:31:48;;;;;;;3.40;2.27;;;;;;;20.77;65.42;100956.88;5032325;28;20795;-71
2022/10/12 00:34:14;;;;;;;3.13;2.30;;;;;;;20.80;64.99;100961.88;5032085;28;20214;-70
2022/10/12 00:36:39;;;;;;;3.90;2.30;;;;;;;20.77;64.94;100958.94;5032040;28;20206;-70
2022/10/12 00:39:06;;;;;;;4.33;2.33;;;;;;;20.79;65.07;100957.34;5032520;28;20183;-71
2022/10/12 00:41:33;;;;;;;4.53;2.33;;;;;;;20.80;65.20;100961.88;5049170;28;20577;-70
2022/10/12 00:43:59;;;;;;;4.20;2.67;;;;;;;20.80;64.59;100959.00;5049348;28;20475;-71
2022/10/12 00:46:38;;;;;;;3.70;2.17;;;;;;;20.78;65.35;100964.28;5049557;28;20406;-71
2022/10/12 00:49:18;;;;;;;3.13;2.10;;;;;;;20.77;65.32;100962.63;5016148;28;20199;-71
2022/10/12 00:51:46;;;;;;;2.90;2.00;;;;;;;20.78;65.23;100964.28;5032526;28;20422;-70
2022/10/12 00:54:14;;;;;;;3.17;2.23;;;;;;;20.78;65.38;100969.22;5016281;28;20414;-70
2022/10/12 00:56:40;;;;;;;4.50;2.67;;;;;;;20.78;64.93;100963.47;5016147;28;20466;-71
2022/10/12 00:59:09;;;;;;;5.37;2.47;;;;;;;20.77;65.26;100961.81;5032211;28;20407;-70
2022/10/12 01:01:34;;;;;;;3.17;2.10;;;;;;;20.77;64.91;100962.63;5049525;28;20395;-71
2022/10/12 01:04:00;;;;;;;5.23;1.83;;;;;;;20.79;65.08;100962.25;5015905;28;20961;-71
2022/10/12 01:06:25;;;;;;;3.63;2.30;;;;;;;20.75;65.18;100961.34;5032523;28;20512;-71
2022/10/12 01:08:51;;;;;;;3.83;2.23;;;;;;;20.76;64.82;100955.22;5032498;28;20654;-70
2022/10/12 01:11:16;;;;;;;3.20;2.23;;;;;;;20.76;65.34;100960.13;5032777;28;20685;-70
2022/10/12 01:13:42;;;;;;;3.83;2.50;;;;;;;20.76;65.20;100965.88;5032515;28;20176;-71
2022/10/12 01:16:18;;;;;;;4.70;2.70;;;;;;;20.77;65.40;100965.50;5050329;28;20300;-71
2022/10/12 01:18:47;;;;;;;3.63;2.23;;;;;;;20.76;64.91;100971.59;5035561;28;20195;-71
2022/10/12 01:21:19;;;;;;;3.03;2.30;;;;;;;20.76;64.95;100966.72;5036335;28;20425;-70
2022/10/12 01:24:05;;;;;;;3.40;2.10;;;;;;;20.79;64.89;100970.84;5019922;28;20921;-70
2022/10/12 01:26:43;;;;;;;4.80;2.67;;;;;;;20.77;65.05;100976.16;5051975;28;20969;-71
2022/10/12 01:29:26;;;;;;;4.17;2.53;;;;;;;20.76;65.43;100975.31;5054076;28;20493;-71
2022/10/12 01:31:52;;;;;;;3.40;2.40;;;;;;;20.76;65.08;100978.19;5052803;28;20782;-70
2022/10/12 01:34:21;;;;;;;3.43;2.10;;;;;;;20.76;65.10;100968.72;5052748;28;20406;-70
2022/10/12 01:37:12;;;;;;;3.40;1.93;;;;;;;20.75;64.89;100969.94;5019396;28;20250;-71
2022/10/12 01:39:42;;;;;;;4.93;2.07;;;;;;;20.73;65.36;100973.19;5010536;28;20437;-71
2022/10/12 01:42:10;;;;;;;5.70;2.30;;;;;;;20.73;65.39;100973.19;5019240;28;20430;-70
2022/10/12 01:44:36;;;;;;;3.80;2.07;;;;;;;20.72;64.88;100965.00;5035678;28;20422;-70
2022/10/12 01:47:01;;;;;;;2.87;1.90;;;;;;;20.74;65.21;100968.28;5019336;28;20524;-71
2022/10/12 01:49:28;;;;;;;3.60;2.20;;;;;;;20.73;65.19;100966.66;5019260;28;20164;-71
2022/10/12 01:52:24;;;;;;;4.43;2.20;;;;;;;20.74;65.17;100972.00;5035607;28;20580;-71
2022/10/12 01:55:22;;;;;;;2.97;1.90;;;;;;;20.71;65.00;100969.88;5051380;28;20434;-72
2022/10/12 01:57:53;;;;;;;3.53;2.20;;;;;;;20.72;65.13;100962.94;5035263;28;20446;-71
2022/10/12 02:00:19;;;;;;;3.90;2.50;;;;;;;20.72;65.25;100974.41;5053510;28;20878;-71
2022/10/12 02:02:55;;;;;;;4.00;1.87;;;;;;;20.71;65.42;100957.56;5035143;28;20410;-70
2022/10/12 02:05:53;;;;;;;3.30;2.10;;;;;;;20.73;65.40;100963.78;5034700;28;20569;-71
2022/10/12 02:08:39;;;;;;;3.67;1.90;;;;;;;20.72;65.10;100965.00;5023523;28;20539;-72
2022/10/12 02:11:15;;;;;;;4.67;2.07;;;;;;;20.72;65.52;100965.81;5014618;28;20419;-71
2022/10/12 02:14:00;;;;;;;3.47;1.77;;;;;;;20.72;65.17;100967.88;5015254;28;20411;-71
2022/10/12 02:16:29;;;;;;;2.90;2.20;;;;;;;20.72;65.21;100959.25;5025765;28;20556;-71
2022/10/12 02:18:55;;;;;;;2.87;1.90;;;;;;;20.70;65.14;100959.63;5035445;28;20910;-71
2022/10/12 02:21:23;;;;;;;3.17;2.20;;;;;;;20.71;65.54;100966.19;5018458;28;20433;-72
2022/10/12 02:23:48;;;;;;;3.60;2.27;;;;;;;20.69;65.26;100955.09;5035107;28;20183;-71
2022/10/12 02:26:14;;;;;;;3.30;2.20;;;;;;;20.71;65.24;100961.28;5035249;28;20513;-72
2022/10/12 02:28:39;;;;;;;2.50;1.87;;;;;;;20.71;64.90;100961.28;5051649;28;20156;-72
2022/10/12 02:31:55;;;;;;;3.93;2.00;;;;;;;20.70;65.53;100961.66;5018182;28;20180;-71
2022/10/12 02:34:23;;;;;;;3.67;2.07;;;;;;;20.70;65.15;100961.66;4933334;29;20629;-72
2022/10/12 02:36:55;;;;;;;3.03;1.90;;;;;;;20.71;65.34;100955.53;4917082;29;20592;-71
2022/10/12 02:39:44;;;;;;;2.40;1.67;;;;;;;20.69;65.25;100960.84;4965353;28;20430;-72
2022/10/12 02:42:12;;;;;;;3.50;2.33;;;;;;;20.68;64.98;100959.16;5051671;28;20900;-72
2022/10/12 02:44:39;;;;;;;2.93;1.80;;;;;;;20.68;65.76;100947.69;5034451;28;20472;-72
2022/10/12 02:47:05;;;;;;;3.37;2.30;;;;;;;20.69;65.15;100949.38;5018430;28;20418;-72
2022/10/12 02:49:31;;;;;;;3.37;2.33;;;;;;;20.69;65.04;100946.50;5034307;28;20395;-71
2022/10/12 02:51:56;;;;;;;4.33;2.00;;;;;;;20.68;64.97;100953.41;5034810;28;20921;-71
2022/10/12 02:54:22;;;;;;;3.50;2.47;;;;;;;20.68;65.03;100946.88;5017889;28;20184;-71
2022/10/12 02:56:48;;;;;;;3.80;2.00;;;;;;;20.67;65.29;100950.94;5017876;28;20199;-71
2022/10/12 02:59:13;;;;;;;4.00;2.10;;;;;;;20.67;65.24;100946.03;5052697;28;20557;-72
2022/10/12 03:01:39;;;;;;;3.20;2.00;;;;;;;20.67;65.39;100943.16;5018051;28;20171;-71
2022/10/12 03:04:04;;;;;;;2.80;2.00;;;;;;;20.70;65.05;100944.44;5034300;28;20544;-72
2022/10/12 03:06:30;;;;;;;3.67;1.90;;;;;;;20.68;64.97;100946.88;5033923;28;20218;-69
2022/10/12 03:08:56;;;;;;;4.13;2.33;;;;;;;20.67;64.88;100948.09;5052167;28;20156;-70
2022/10/12 03:11:21;;;;;;;4.57;2.10;;;;;;;20.67;64.94;100950.94;5034519;28;20169;-70
2022/10/12 03:13:47;;;;;;;4.13;2.20;;;;;;;20.68;65.20;100953.41;5017707;28;20535;-71
2022/10/12 03:16:12;;;;;;;2.80;1.97;;;;;;;20.68;65.27;100946.88;5052068;28;20223;-70
2022/10/12 03:18:38;;;;;;;4.20;2.20;;;;;;;20.65;65.42;100948.47;5050957;28;20190;-70
2022/10/12 03:21:04;;;;;;;3.57;1.90;;;;;;;20.67;65.58;100948.91;5034251;28;20157;-70
2022/10/12 03:23:29;;;;;;;3.40;1.97;;;;;;;20.67;65.19;100951.75;5033957;28;20203;-70
2022/10/12 03:25:55;;;;;;;2.50;1.70;;;;;;;20.65;65.11;100945.59;5017049;28;20184;-70
2022/10/12 03:28:20;;;;;;;3.40;1.97;;;;;;;20.67;64.99;100945.22;5051915;28;20171;-70
2022/10/12 03:30:45;;;;;;;2.93;1.80;;;;;;;20.67;65.26;100945.22;5033516;28;20662;-71
2022/10/12 03:33:11;;;;;;;3.67;1.93;;;;;;;20.67;65.28;100940.28;5051771;28;20525;-70
2022/10/12 03:35:36;;;;;;;4.77;1.83;;;;;;;20.66;65.05;100952.13;5017397;28;20175;-71
2022/10/12 03:38:02;;;;;;;4.60;2.27;;;;;;;20.66;64.89;100952.13;5033794;28;20183;-72
2022/10/12 03:40:27;;;;;;;3.80;1.93;;;;;;;20.65;65.38;100948.47;5033473;28;20148;-71
2022/10/12 03:42:53;;;;;;;3.90;2.10;;;;;;;20.67;65.14;100956.69;5033526;28;20188;-71
2022/10/12 03:45:18;;;;;;;2.87;2.00;;;;;;;20.68;65.41;100955.47;5051372;28;20194;-70
2022/10/12 03:47:44;;;;;;;2.50;1.83;;;;;;;20.67;65.19;100956.69;5017099;28;20628;-71
2022/10/12 03:50:09;;;;;;;2.83;1.70;;;;;;;20.67;65.23;100963.25;5051378;28;20518;-70
2022/10/12 03:52:34;;;;;;;3.10;1.97;;;;;;;20.67;64.66;100951.75;5045592;28;20241;-70
2022/10/12 03:55:00;;;;;;;2.70;1.93;;;;;;;20.65;65.61;100953.34;5029271;28;20175;-70
2022/10/12 03:57:25;;;;;;;2.37;1.67;;;;;;;20.65;65.17;100956.22;5051308;28;20187;-70
2022/10/12 03:59:51;;;;;;;2.60;1.80;;;;;;;20.65;65.01;100959.09;5013087;28;20176;-70
2022/10/12 04:02:16;;;;;;;2.70;1.83;;;;;;;20.64;65.01;100952.53;5029996;28;20169;-71
2022/10/12 04:04:41;;;;;;;3.30;2.10;;;;;;;20.67;64.92;100963.25;5047895;28;20199;-70
2022/10/12 04:07:07;;;;;;;2.90;2.03;;;;;;;20.65;65.30;100970.56;5032953;28;20164;-71
2022/10/12 04:09:32;;;;;;;3.83;2.20;;;;;;;20.68;64.83;100961.22;5033532;28;20243;-72
2022/10/12 04:11:58;;;;;;;3.20;2.03;;;;;;;20.66;65.04;100967.31;5033346;28;20164;-72
2022/10/12 04:14:24;;;;;;;2.93;1.97;;;;;;;20.65;65.05;100968.53;5000566;28;20184;-71
2022/10/12 04:16:52;;;;;;;4.53;2.03;;;;;;;20.65;65.28;100964.84;5050159;28;21007;-72
2022/10/12 04:19:18;;;;;;;2.53;1.67;;;;;;;20.65;64.72;100962.81;5048858;28;20159;-71
2022/10/12 04:21:43;;;;;;;5.30;1.90;;;;;;;20.65;65.16;100962.81;5032022;28;20410;-73
2022/10/12 04:24:12;;;;;;;4.13;1.87;;;;;;;20.66;65.20;100970.19;5048947;28;20167;-72
2022/10/12 04:26:37;;;;;;;2.50;1.60;;;;;;;20.65;64.97;100967.69;5032090;28;20168;-72
2022/10/12 04:29:03;;;;;;;3.90;2.13;;;;;;;20.65;64.81;100980.03;5049125;28;20421;-71
2022/10/12 04:31:28;;;;;;;2.43;1.70;;;;;;;20.68;65.17;100987.03;5032263;28;20183;-73
2022/10/12 04:33:55;;;;;;;3.63;1.50;;;;;;;20.64;64.93;100981.22;5031868;28;20187;-71
2022/10/12 04:36:23;;;;;;;3.53;1.97;;;;;;;20.65;65.16;100976.31;5030951;28;20208;-72
2022/10/12 04:38:52;;;;;;;2.43;1.63;;;;;;;20.67;65.42;100980.47;5048015;28;21109;-71
2022/10/12 04:41:18;;;;;;;2.43;1.80;;;;;;;20.66;64.92;100977.97;5015166;28;20510;-71
2022/10/12 04:43:43;;;;;;;3.50;1.63;;;;;;;20.64;64.94;100986.97;5049054;28;20440;-71
2022/10/12 04:46:09;;;;;;;3.40;1.87;;;;;;;20.65;64.91;100982.88;5011568;28;20628;-71
2022/10/12 04:48:34;;;;;;;3.23;1.90;;;;;;;20.65;64.89;100991.50;5012137;28;20219;-71
2022/10/12 04:51:00;;;;;;;3.40;1.87;;;;;;;20.68;64.53;100987.84;5042125;28;20571;-72
2022/10/12 04:53:25;;;;;;;2.63;1.80;;;;;;;20.64;64.96;100989.84;5052102;28;20164;-72
2022/10/12 04:55:51;;;;;;;3.13;1.53;;;;;;;20.66;64.86;100996.03;5053120;28;20172;-72
2022/10/12 04:58:16;;;;;;;2.57;1.60;;;;;;;20.65;65.12;100997.25;5019143;28;20215;-72
2022/10/12 05:00:41;;;;;;;2.50;1.70;;;;;;;20.65;65.22;100988.63;5053300;28;20171;-72
2022/10/12 05:03:07;;;;;;;2.87;1.67;;;;;;;20.66;64.96;100990.28;5002146;28;20183;-72
2022/10/12 05:05:35;;;;;;;3.03;1.70;;;;;;;20.64;65.49;100992.72;5035428;28;20219;-73
2022/10/12 05:08:02;;;;;;;2.47;1.77;;;;;;;20.65;64.64;100994.38;5019842;28;20152;-72
2022/10/12 05:10:27;;;;;;;3.17;1.80;;;;;;;20.66;65.40;100992.31;5018682;28;20422;-73
2022/10/12 05:12:53;;;;;;;2.60;1.97;;;;;;;20.65;64.70;100996.38;5051474;28;20433;-72
2022/10/12 05:15:18;;;;;;;3.13;1.77;;;;;;;20.64;64.90;100998.44;5012844;28;1157258;-71
2022/10/12 05:17:44;;;;;;;2.50;1.70;;;;;;;20.65;65.20;100996.38;5036335;28;20207;-71
2022/10/12 05:20:10;;;;;;;3.17;1.50;;;;;;;20.64;65.38;100994.75;5054301;28;20160;-71
2022/10/12 05:22:35;;;;;;;3.00;1.70;;;;;;;20.65;65.27;100988.63;5034894;28;20237;-70
2022/10/12 05:25:01;;;;;;;2.97;2.17;;;;;;;20.67;65.30;100986.19;5035736;28;20171;-70
2022/10/12 05:27:26;;;;;;;2.40;1.57;;;;;;;20.68;65.25;100989.91;5052521;28;20179;-72
2022/10/12 05:29:52;;;;;;;4.60;1.73;;;;;;;20.65;65.24;100985.75;5034845;28;20163;-71
2022/10/12 05:32:17;;;;;;;2.90;2.03;;;;;;;20.65;64.63;100988.63;5035131;28;20160;-71
2022/10/12 05:34:43;;;;;;;3.20;1.90;;;;;;;20.67;65.59;100985.38;5051863;28;20171;-72
2022/10/12 05:37:08;;;;;;;3.97;1.90;;;;;;;20.66;65.18;100989.44;5035083;28;20196;-72
2022/10/12 05:39:36;;;;;;;2.57;1.60;;;;;;;20.67;65.22;100979.66;5035814;28;20229;-71
2022/10/12 05:42:01;;;;;;;3.50;2.00;;;;;;;20.67;65.00;100974.72;5019774;28;20176;-71
2022/10/12 05:44:27;;;;;;;3.23;2.13;;;;;;;20.66;65.39;100986.56;5036035;28;20944;-72
2022/10/12 05:46:52;;;;;;;2.33;1.63;;;;;;;20.64;64.80;100981.22;5035716;28;20631;-72
2022/10/12 05:49:18;;;;;;;3.03;2.00;;;;;;;20.65;64.91;100982.03;5051713;28;20639;-72
2022/10/12 05:51:43;;;;;;;2.83;1.77;;;;;;;20.65;64.86;100987.78;5019225;28;20183;-72
2022/10/12 05:54:08;;;;;;;2.80;1.53;;;;;;;20.65;64.80;100990.66;5053658;28;20172;-71
2022/10/12 05:56:35;;;;;;;2.80;1.60;;;;;;;20.64;64.99;100998.44;5053631;28;20196;-72
2022/10/12 05:59:02;;;;;;;2.90;1.80;;;;;;;20.65;65.00;100994.38;5035946;28;20164;-72
2022/10/12 06:01:28;;;;;;;2.40;1.60;;;;;;;20.66;65.09;100990.28;5034679;28;20886;-69
2022/10/12 06:03:53;;;;;;;2.67;1.80;;;;;;;20.66;65.49;100983.69;5031685;28;20438;-72
2022/10/12 06:06:19;;;;;;;2.37;1.53;;;;;;;20.65;65.05;100994.38;5051594;28;20183;-71
2022/10/12 06:08:44;;;;;;;2.50;1.70;;;;;;;20.66;65.03;100993.16;5053282;28;20176;-72
2022/10/12 06:11:10;;;;;;;4.10;2.00;;;;;;;20.66;65.36;100996.03;5035660;28;20183;-71
2022/10/12 06:13:35;;;;;;;2.87;1.87;;;;;;;20.65;64.87;100991.50;5035507;28;20182;-72
2022/10/12 06:16:01;;;;;;;2.70;1.60;;;;;;;20.64;65.32;100994.75;5035357;28;20648;-71
2022/10/12 06:18:26;;;;;;;2.70;1.70;;;;;;;20.64;65.23;100991.88;5035051;28;20547;-71
2022/10/12 06:20:52;;;;;;;3.17;1.97;;;;;;;20.66;64.73;100996.03;5048353;28;20180;-71
2022/10/12 06:23:18;;;;;;;2.60;1.83;;;;;;;20.67;64.81;100991.13;5014939;28;20230;-72
2022/10/12 06:25:47;;;;;;;2.67;1.80;;;;;;;20.66;65.00;100996.03;5016184;28;20871;-72
2022/10/12 06:28:14;;;;;;;3.07;1.90;;;;;;;20.67;65.10;100994.81;5051637;28;20887;-71
2022/10/12 06:30:39;;;;;;;3.03;1.60;;;;;;;20.67;64.80;100996.88;5035089;28;20429;-71
2022/10/12 06:33:04;;;;;;;3.50;1.87;;;;;;;20.66;64.86;100996.03;5052642;28;20422;-72
2022/10/12 06:35:30;;;;;;;2.40;1.70;;;;;;;20.65;65.07;101002.97;5051894;28;20191;-72
2022/10/12 06:37:55;;;;;;;2.50;1.77;;;;;;;20.67;64.67;101002.59;5034437;28;20211;-71
2022/10/12 06:40:21;;;;;;;3.27;1.63;;;;;;;20.67;64.80;101002.59;5031508;28;20165;-71
2022/10/12 06:42:47;;;;;;;2.53;1.60;;;;;;;20.68;65.35;101002.19;5014819;28;20192;-72
2022/10/12 06:45:13;;;;;;;2.83;1.83;;;;;;;20.69;65.15;101006.75;5025347;28;20938;-71
2022/10/12 06:47:38;;;;;;;3.10;1.90;;;;;;;20.66;64.47;101001.75;5030778;28;20415;-72
2022/10/12 06:50:05;;;;;;;2.90;1.90;;;;;;;20.64;65.22;101001.31;5036662;28;20655;-71
2022/10/12 06:52:30;;;;;;;2.40;1.50;;;;;;;20.66;65.10;100996.03;5015457;28;20184;-72
2022/10/12 06:54:56;;;;;;;2.30;1.60;;;;;;;20.69;64.70;101003.03;5043976;28;20485;-72
2022/10/12 06:57:21;;;;;;;2.60;1.87;;;;;;;20.68;65.08;101001.38;5025529;28;20187;-71
2022/10/12 06:59:47;;;;;;;2.57;1.60;;;;;;;20.68;64.95;101001.38;5050266;28;20187;-72
2022/10/12 07:02:12;;;;;;;2.90;1.80;;;;;;;20.68;64.73;101004.25;5024783;28;20180;-73
2022/10/12 07:04:38;;;;;;;2.10;1.70;;;;;;;20.68;64.90;101007.94;5015283;28;20199;-72
2022/10/12 07:07:03;;;;;;;3.30;2.03;;;;;;;20.66;64.75;101007.50;5048405;28;20176;-71
2022/10/12 07:09:29;;;;;;;2.50;1.77;;;;;;;20.67;65.20;101000.53;5034866;28;20234;-71
2022/10/12 07:11:54;;;;;;;2.77;1.57;;;;;;;20.68;64.86;101013.69;5029710;28;20188;-71
2022/10/12 07:14:20;;;;;;;2.50;1.60;;;;;;;20.67;64.68;101014.88;5019765;28;20187;-72
2022/10/12 07:16:46;;;;;;;2.90;1.70;;;;;;;20.68;64.96;101010.81;5022086;28;20259;-71
2022/10/12 07:19:11;;;;;;;2.70;1.57;;;;;;;20.67;64.83;101012.03;5032865;28;20188;-71
2022/10/12 07:21:37;;;;;;;3.30;1.60;;;;;;;20.68;65.05;101010.00;5033249;28;20186;-72
2022/10/12 07:24:02;;;;;;;6.87;2.17;;;;;;;20.68;64.83;101013.69;5038153;28;20180;-72
2022/10/12 07:26:28;;;;;;;2.43;1.43;;;;;;;20.68;64.84;101015.72;5033387;28;20294;-72
2022/10/12 07:28:53;;;;;;;3.20;2.07;;;;;;;20.69;64.94;101017.38;5045383;28;20191;-71
2022/10/12 07:31:19;;;;;;;3.10;1.80;;;;;;;20.68;64.91;101022.28;5035332;28;20596;-72
2022/10/12 07:33:44;;;;;;;2.60;1.60;;;;;;;20.70;65.34;101017.00;5035724;28;20492;-72
2022/10/12 07:36:09;;;;;;;3.47;1.90;;;;;;;20.70;64.83;101016.16;5028672;28;20196;-72
2022/10/12 07:38:35;;;;;;;2.40;1.70;;;;;;;20.69;64.63;101014.53;5016198;28;20215;-71
2022/10/12 07:41:01;;;;;;;2.87;1.53;;;;;;;20.69;64.70;101009.63;5031819;28;20176;-72
2022/10/12 07:43:27;;;;;;;3.30;1.90;;;;;;;20.68;65.03;101007.13;5034022;28;20192;-71
2022/10/12 07:45:52;;;;;;;3.23;1.60;;;;;;;20.69;64.71;101012.50;5019295;28;20188;-71
2022/10/12 07:48:18;;;;;;;2.90;1.57;;;;;;;20.70;64.94;101013.31;5036400;28;20461;-72
2022/10/12 07:50:44;;;;;;;2.63;1.60;;;;;;;20.68;64.62;101005.06;5033267;28;20211;-71
2022/10/12 07:53:09;;;;;;;2.77;1.70;;;;;;;20.69;64.65;101005.91;5004557;28;20514;-72
2022/10/12 07:55:35;;;;;;;2.90;1.77;;;;;;;20.68;64.85;101016.53;5037174;28;20846;-71
2022/10/12 07:58:00;;;;;;;3.80;1.73;;;;;;;20.68;64.56;101010.00;5032179;28;20306;-71
2022/10/12 08:00:26;;;;;;;5.07;1.87;;;;;;;20.72;64.84;101008.03;5032623;28;20230;-72
2022/10/12 08:02:51;;;;;;;3.40;1.80;;;;;;;20.71;64.53;101010.06;5012541;28;20180;-71
2022/10/12 08:05:20;;;;;;;2.20;1.57;;;;;;;20.68;64.46;101016.53;5021669;28;20230;-72
2022/10/12 08:07:46;;;;;;;3.07;1.40;;;;;;;20.70;64.59;101014.16;5018203;28;20181;-72
2022/10/12 08:10:12;;;;;;;3.33;1.70;;;;;;;20.70;64.93;101019.03;5033800;28;20430;-72
2022/10/12 08:12:37;;;;;;;3.37;2.10;;;;;;;20.70;64.84;101008.41;5017093;28;20493;-72
2022/10/12 08:15:03;;;;;;;2.87;1.80;;;;;;;20.73;64.82;101019.09;5023002;28;20199;-72
2022/10/12 08:17:28;;;;;;;2.70;1.70;;;;;;;20.70;64.92;101021.91;5031116;28;20302;-72
2022/10/12 08:19:54;;;;;;;2.47;1.57;;;;;;;20.72;64.58;101022.38;5031448;28;20179;-71
2022/10/12 08:22:19;;;;;;;3.30;1.97;;;;;;;20.71;64.84;101027.28;5017435;28;20184;-72
2022/10/12 08:24:45;;;;;;;3.10;1.60;;;;;;;20.71;64.50;101026.44;5020277;28;20188;-71
2022/10/12 08:27:10;;;;;;;2.43;1.60;;;;;;;20.72;64.86;101031.81;5030264;28;20538;-71
2022/10/12 08:29:36;;;;;;;2.67;1.60;;;;;;;20.73;64.98;101024.03;5030086;28;20184;-72
2022/10/12 08:32:01;;;;;;;3.83;2.10;;;;;;;20.70;64.68;101025.63;5036185;28;20179;-69
2022/10/12 08:34:27;;;;;;;3.17;1.90;;;;;;;20.73;64.21;101024.84;5035069;28;20214;-72
2022/10/12 08:36:53;;;;;;;2.70;1.40;;;;;;;20.73;64.94;101026.91;5018764;28;20242;-71
2022/10/12 08:39:18;;;;;;;2.77;2.13;;;;;;;20.73;64.91;101024.03;5030446;28;20435;-72
2022/10/12 08:42:12;;;;;;;2.40;1.40;;;;;;;20.73;64.67;101021.97;5003438;28;21024;-72
2022/10/12 08:45:16;;;;;;;2.80;1.43;;;;;;;20.71;64.72;101018.66;5015381;28;20635;-72
2022/10/12 08:47:44;;;;;;;3.00;1.70;;;;;;;20.71;64.81;101021.53;5016438;28;20430;-71
2022/10/12 08:50:37;;;;;;;4.37;2.10;;;;;;;20.66;64.69;101021.84;5019341;28;20440;-71
2022/10/12 08:53:14;;;;;;;6.87;3.13;;;;;;;20.67;62.96;101014.88;5013824;28;20439;-70
2022/10/12 08:55:42;;;;;;;7.50;3.97;;;;;;;20.69;63.21;101017.38;5033825;28;20418;-71
2022/10/12 08:58:19;;;;;;;20.77;3.90;;;;;;;20.69;62.71;101015.38;5032627;28;20463;-71
2022/10/12 09:00:47;;;;;;;13.10;4.00;;;;;;;20.70;62.78;101019.88;5017801;28;20502;-71
2022/10/12 09:03:32;;;;;;;19.03;4.60;;;;;;;20.69;62.34;101015.38;5016548;28;20418;-71
2022/10/12 09:06:24;;;;;;;21.60;4.30;;;;;;;20.72;62.12;101010.91;5034233;28;20420;-71
2022/10/12 09:09:01;;;;;;;14.87;3.90;;;;;;;20.71;62.73;101020.69;5013958;28;20460;-72
2022/10/12 09:11:41;;;;;;;17.90;4.27;;;;;;;20.69;62.68;101017.38;5030332;28;20422;-71
2022/10/12 09:14:13;;;;;;;15.60;4.23;;;;;;;20.63;62.44;101011.09;5032850;28;21084;-72
2022/10/12 09:16:40;;;;;;;12.87;4.03;;;;;;;20.61;62.20;101013.53;5019063;28;20503;-72
2022/10/12 09:19:16;;;;;;;19.90;5.10;;;;;;;20.58;62.07;101017.16;5017870;28;20431;-73
2022/10/12 09:21:42;;;;;;;15.90;3.87;;;;;;;20.59;62.03;101030.31;5018896;28;20772;-72
2022/10/12 09:24:15;;;;;;;14.20;4.80;;;;;;;20.57;62.02;101026.97;5019846;28;20438;-72
2022/10/12 09:26:40;;;;;;;16.37;4.37;;;;;;;20.57;61.96;101032.72;5025906;28;20184;-71
2022/10/12 09:29:28;;;;;;;16.70;4.60;;;;;;;20.56;61.77;101033.91;5019166;28;21392;-70
2022/10/12 09:32:30;;;;;;;17.27;5.20;;;;;;;20.56;62.08;101030.22;5019262;28;20188;-70
2022/10/12 09:34:56;;;;;;;20.40;4.87;;;;;;;20.57;62.08;101031.91;5014030;28;20414;-71
2022/10/12 09:37:26;;;;;;;23.37;5.77;;;;;;;20.59;61.70;101029.47;5016172;28;20455;-71
2022/10/12 09:39:52;;;;;;;16.57;4.70;;;;;;;20.56;61.94;101035.94;5028478;28;20167;-71
2022/10/12 09:42:17;;;;;;;15.40;4.90;;;;;;;20.49;62.17;101030.91;5019018;28;20978;-72
2022/10/12 09:44:47;;;;;;;9.60;5.27;;;;;;;20.47;61.61;101033.31;5036885;28;20187;-71
2022/10/12 09:47:30;;;;;;;18.90;6.30;;;;;;;20.44;60.76;101033.25;5023322;28;20184;-70
2022/10/12 09:50:05;;;;;;;18.20;6.40;;;;;;;20.44;59.24;101021.75;5033503;28;21063;-71
2022/10/12 09:52:34;;;;;;;17.63;6.10;;;;;;;20.49;59.55;101021.47;5035263;28;20441;-69
2022/10/12 09:55:00;;;;;;;15.37;5.80;;;;;;;20.53;59.33;101014.59;5033150;28;20414;-70
2022/10/12 09:57:29;;;;;;;15.27;5.57;;;;;;;20.61;59.56;101015.56;5033234;28;20560;-70
2022/10/12 09:59:55;;;;;;;18.03;5.90;;;;;;;20.61;59.38;101021.31;5032322;28;20435;-69
2022/10/12 10:02:22;;;;;;;12.40;5.03;;;;;;;20.64;60.01;101021.41;5019343;28;20434;-69
2022/10/12 10:04:48;;;;;;;23.17;6.53;;;;;;;20.62;59.93;101018.06;5019778;28;20200;-69
2022/10/12 10:07:30;;;;;;;16.17;5.20;;;;;;;20.62;59.90;101012.31;5011015;28;20430;-70
2022/10/12 10:10:09;;;;;;;14.03;5.43;;;;;;;20.65;60.27;101014.44;5033842;28;20426;-71
2022/10/12 10:12:43;;;;;;;12.50;5.30;;;;;;;20.63;60.34;101016.84;5037692;28;21232;-70
2022/10/12 10:15:38;;;;;;;10.40;4.53;;;;;;;20.67;60.67;101012.03;5019411;28;20437;-70
2022/10/12 10:18:16;;;;;;;14.23;4.90;;;;;;;20.66;60.67;101012.38;5026616;28;20475;-70
2022/10/12 10:20:49;;;;;;;28.50;5.50;;;;;;;20.69;60.68;101012.50;5032614;28;20426;-70
2022/10/12 10:23:25;;;;;;;12.00;4.90;;;;;;;20.66;60.86;101010.38;5027052;28;20430;-69
2022/10/12 10:26:08;;;;;;;15.27;4.70;;;;;;;20.66;61.32;101013.25;5034496;28;20427;-70
2022/10/12 10:28:35;;;;;;;9.83;4.70;;;;;;;20.67;60.98;101020.63;5035513;28;20430;-70
2022/10/12 10:31:24;;;;;;;10.37;4.00;;;;;;;20.67;60.97;101014.88;5019086;28;20435;-70
2022/10/12 10:34:14;;;;;;;8.33;4.10;;;;;;;20.68;61.16;101016.53;5021605;28;20919;-71
2022/10/12 10:36:57;;;;;;;9.70;4.20;;;;;;;20.70;61.18;101013.31;5035920;28;20466;-70
2022/10/12 10:39:31;;;;;;;14.37;4.80;;;;;;;20.69;61.65;101009.63;5034075;28;20458;-70
2022/10/12 10:42:08;;;;;;;14.47;4.67;;;;;;;20.69;61.33;101005.91;5017334;28;20446;-70
2022/10/12 10:44:34;;;;;;;9.63;4.03;;;;;;;20.70;61.68;101005.53;5020543;28;20421;-70
2022/10/12 10:47:01;;;;;;;10.33;4.33;;;;;;;20.71;61.66;101009.22;5018327;28;20422;-69
2022/10/12 10:49:32;;;;;;;8.77;3.83;;;;;;;20.73;61.64;101001.06;5032970;28;20196;-70
2022/10/12 10:51:58;;;;;;;13.93;4.33;;;;;;;20.76;61.68;101000.31;5036138;28;20423;-70
2022/10/12 10:54:25;;;;;;;11.30;4.13;;;;;;;20.74;61.42;100997.00;5031944;28;20469;-69
2022/10/12 10:56:51;;;;;;;12.37;3.77;;;;;;;20.73;62.22;100995.34;5035842;28;20667;-70
2022/10/12 10:59:40;;;;;;;8.23;3.73;;;;;;;20.74;61.82;100994.13;5017946;28;20434;-70
2022/10/12 11:02:14;;;;;;;11.87;4.33;;;;;;;20.74;61.66;101003.56;5019505;28;20454;-70
2022/10/12 11:04:46;;;;;;;11.23;3.83;;;;;;;20.75;62.01;100990.88;5018173;28;20478;-70
2022/10/12 11:07:23;;;;;;;7.23;3.67;;;;;;;20.74;61.87;100985.50;5017005;28;20423;-70
2022/10/12 11:09:52;;;;;;;8.10;3.87;;;;;;;20.78;61.57;100986.44;5032159;28;21224;-70
2022/10/12 11:12:44;;;;;;;9.37;4.60;;;;;;;20.77;61.73;100984.78;5017260;28;20478;-70
2022/10/12 11:15:25;;;;;;;7.60;3.80;;;;;;;20.76;62.18;100983.09;5036284;28;20423;-70
2022/10/12 11:17:53;;;;;;;12.60;4.40;;;;;;;20.74;62.01;100979.78;4999243;28;20501;-70
2022/10/12 11:20:44;;;;;;;7.93;3.77;;;;;;;20.77;62.84;100976.97;5031345;28;20422;-70
2022/10/12 11:23:19;;;;;;;10.73;4.63;;;;;;;20.77;62.07;100979.03;5032276;28;20804;-70
2022/10/12 11:26:03;;;;;;;10.67;4.10;;;;;;;20.75;62.24;100976.53;5031972;28;20419;-70
2022/10/12 11:28:30;;;;;;;8.53;4.30;;;;;;;20.74;62.28;100971.16;5033225;28;20437;-70
2022/10/12 11:30:56;;;;;;;8.90;4.03;;;;;;;20.74;62.17;100969.13;5033472;28;21033;-70
2022/10/12 11:33:24;;;;;;;6.77;3.33;;;;;;;20.81;62.15;100974.16;5034898;28;20426;-69